Manitouwadge, Canada
Current Conditions -  °F | °C
As of 7:00 AM on Thursday 29 Jan 2015 (Local Time) from CYGQ Reporting Station
Light Snow Light Snow  
Wind Chill: -4°   Ceiling: 1200
Heat Index: 10°   Visibility: 10mi
Dew Point:   Wind: 12mph
Humidity: 79%   Direction: 350°N
Pressure: 29.81"   Gusts: 20mph
Location:  49.13°N, 85.8°W
Report Text: CYGQ 291200Z 35010G17KT 10SM -SN DRSN OVC012 M12/M15 A2981 RMKSC8 /S05/ SLP121
Loading
Personal Weather Stations






























Interactive Weather Map New forecast layout! Learn more

10-Day Weather Forecast

Advertisements
Track Severe Weather on mobile